Главная страница
METAR-TAF:

METAR-TAF

Аэропорты :

Хитроу

Лондон-Хитроу, Англия

широта: 51-29N, долгота: 000-27W, высота над уровнем моря: 24 м

Текущие метеонаблюдения

Эта сводка был подготовлена 29 минут назад, в 00:20 UTC
Ветер 8 Узел от западный
Температура 3°C
Влажность 93%
Давление 1021 hPa
Видимость 10 км и более

METAR: EGLL 180020Z AUTO 27008KT 9999 NCD 03/02 Q1021

Время: 00:49 (00:49 UTC)

Прогноз

Эта сводка был подготовлена 1 час и 57 минут назад, в 22:52 UTC
Прогноз действительный с 18-го 00 UTC до 19-го 06 UTC
Ветер 10 Узел от юго-западный
Видимость 10 км и более
Отдельные облака на высоте 4000 фута
Вероятность 30%
С 18-го 04 UTC до 18-го 09 UTC
Видимость: 8000 м
изменения
С 18-го 10 UTC до 18-го 13 UTC
Ветер 6 Узел от северо-западный
Вероятность 30%
С 18-го 21 UTC до 19-го 06 UTC
Видимость: 8000 м

TAF: EGLL 172252Z 1800/1906 23010KT 9999 SCT040 PROB30 1804/1809 8000 BECMG 1810/1813 32006KT PROB30 1821/1906 8000

Метеонаблюдения и прогнозы для более 4000 аэропортов (сводки METAR и TAF).

Имеющиеся станции представлены на карте желтыми и красными точками.

Чтобы увидеть название станции, наведите на нее мышь.

Затем щелкните, чтобы увидеть метеонаблюдения и метеопрогнозы.

Управление картой: чтобы увеличить масштаб, щелкните зеленые кнопки с черным крестиком; чтобы уменьшить масштаб, щелкните зеленую кнопку с тире; для просмотра соседних карт щелкайте зеленые стрелки.


METAR-TAF: